Aviation Digital Data Service (ADDS)

Output produced by METARs form (1707 UTC 20 January 2019)
found at http://www.aviationweather.gov/metar/data/
 
FABL 201600Z 26005KT 200V010 CAVOK 30/M01 Q1021 NOSIG
TAF FABL 201600Z 2018/2118 VRB03KT CAVOK TX34/2113Z TN15/2103Z 
     BECMG 2022/2024 03010KT 
     BECMG 2110/2112 33010KT SCT040
       
FACT 201700Z 20012KT 170V230 CAVOK 22/16 Q1015 NOSIG
TAF FACT 201600Z 2018/2124 21010KT CAVOK TX26/2112Z TN14/2104Z 
     TEMPO 2021/2107 VRB03KT 
     FM210600 21010KT 9999 FEW010 
     FM210900 21014KT CAVOK 
     FM211900 VRB03KT 9999 FEW015 BKN020
       
FAEL 201700Z 06013G23KT 9999 FEW035 21/14 Q1022
TAF FAEL 200900Z 2010/2019 12010KT 9999 FEW030 TX24/2010Z TN20/2018Z 
     BECMG 2013/2015 06015KT BKN030 
     TEMPO 2016/2018 06015G25KT
       
FAGG 201700Z 11010KT 060V130 9999 FEW015 20/16 Q1018
TAF FAGG 201600Z 2018/2118 12010KT CAVOK TX29/2112Z TN15/2104Z 
     BECMG 2019/2021 VRB03KT 
     BECMG 2110/2112 20018KT 
     FM211500 22012KT 9999 SCT015
       
FAHS 201700Z AUTO 17012KT //// // ////// 25/11 Q1020
TAF FAHS 200900Z 2010/2018 19015G28KT CAVOK TX28/2013Z TN22/2018Z
       
FAKM 201700Z 34002KT CAVOK 32/M00 Q1019
TAF FAKM 200900Z 2010/2018 03005KT CAVOK TX34/2013Z TN24/2018Z 
     BECMG 2012/2014 VRB03KT
       
FALW 201600Z AUTO 22012KT //// // ////// 30/M00 Q1013
FALA 201700Z 07008KT CAVOK 23/10 Q1024 NOSIG
TAF FALA 201600Z 2018/2118 10008KT 9999 SCT035 TX29/2113Z TN14/2103Z 
     BECMG 2020/2022 VRB03KT CAVOK 
     BECMG 2111/2113 13008KT 
     BECMG 2116/2118 VRB03KT
       
FAMM 201700Z 06012KT 9999 FEW045 29/10 Q1020 NOSIG
TAF FAMM 200900Z 2010/2018 11010KT CAVOK TX30/2013Z TN25/2018Z
       
FAOB 201600Z AUTO 15013KT //// // ////// 23/13 Q1016
TAF FAPM 200900Z 2010/2021 10005KT 9999 SCT025 BKN035 TX23/2012Z TN15/2021Z
       
FAPE 201700Z 09018G28KT CAVOK 20/14 Q1020 NOSIG
TAF FAPE 201600Z 2018/2118 09017KT CAVOK TX33/2112Z TN14/2103Z 
     BECMG 2021/2023 03008KT 
     BECMG 2109/2111 13012KT 
     BECMG 2115/2117 24020G30KT
       
TAF FARB 200900Z 2010/2021 16015KT 9999 SCT015 BKN030 TX24/2012Z TN22/2021Z
       
FAUT 201700Z 10014KT 9999 SCT020 16/12 Q1024
TAF FAUT 200900Z 2010/2018 10010KT 9999 FEW035 TX24/2011Z TN15/2018Z 
     BECMG 2013/2015 BKN018 
     BECMG 2016/2018 04006KT BKN014
       
FAUP 201700Z 19002KT CAVOK 35/M09 Q1016 NOSIG
TAF FAUP 201600Z 2018/2118 17005KT CAVOK TX36/2114Z TN14/2103Z 
     BECMG 2104/2106 35013KT
       
TAF FAWK 200900Z 2010/2018 11012KT 9999 SCT030 TX25/2013Z TN19/2018Z
       
FAWB 201700Z 06003KT CAVOK 24/14 Q1023
TAF FAWB 200900Z 2010/2018 12015KT 9999 SCT030 TX27/2013Z TN21/2018Z